sensor_id;sensor_type;location;lat;lon;timestamp;P1;durP1;ratioP1;P2;durP2;ratioP2
35364;SDS011;21464;48.112;11.530;2023-08-31T00:00:40;2.22;;;2.13;;
35364;SDS011;21464;48.112;11.530;2023-08-31T00:03:07;2.35;;;2.20;;
35364;SDS011;21464;48.112;11.530;2023-08-31T00:05:39;2.10;;;2.00;;
35364;SDS011;21464;48.112;11.530;2023-08-31T00:08:06;2.13;;;1.92;;
35364;SDS011;21464;48.112;11.530;2023-08-31T00:10:33;2.30;;;2.20;;
35364;SDS011;21464;48.112;11.530;2023-08-31T00:13:01;2.33;;;2.13;;
35364;SDS011;21464;48.112;11.530;2023-08-31T00:15:28;2.30;;;2.10;;
35364;SDS011;21464;48.112;11.530;2023-08-31T00:18:04;2.13;;;2.03;;
35364;SDS011;21464;48.112;11.530;2023-08-31T00:20:31;5.10;;;2.10;;
35364;SDS011;21464;48.112;11.530;2023-08-31T00:22:57;2.20;;;2.10;;
35364;SDS011;21464;48.112;11.530;2023-08-31T00:25:24;2.17;;;2.00;;
35364;SDS011;21464;48.112;11.530;2023-08-31T00:27:50;2.38;;;2.25;;
35364;SDS011;21464;48.112;11.530;2023-08-31T00:30:18;2.70;;;2.45;;
35364;SDS011;21464;48.112;11.530;2023-08-31T00:32:44;2.67;;;2.47;;
35364;SDS011;21464;48.112;11.530;2023-08-31T00:35:13;2.10;;;2.00;;
35364;SDS011;21464;48.112;11.530;2023-08-31T00:37:39;2.40;;;2.20;;
35364;SDS011;21464;48.112;11.530;2023-08-31T00:40:06;2.45;;;2.30;;
35364;SDS011;21464;48.112;11.530;2023-08-31T00:42:35;2.80;;;2.60;;
35364;SDS011;21464;48.112;11.530;2023-08-31T00:45:03;2.40;;;2.25;;
35364;SDS011;21464;48.112;11.530;2023-08-31T00:47:30;2.70;;;2.50;;
35364;SDS011;21464;48.112;11.530;2023-08-31T00:49:56;2.38;;;2.28;;
35364;SDS011;21464;48.112;11.530;2023-08-31T00:52:22;2.42;;;2.17;;
35364;SDS011;21464;48.112;11.530;2023-08-31T00:54:49;2.35;;;2.25;;
35364;SDS011;21464;48.112;11.530;2023-08-31T00:57:17;2.60;;;2.40;;
35364;SDS011;21464;48.112;11.530;2023-08-31T00:59:44;2.53;;;2.22;;
35364;SDS011;21464;48.112;11.530;2023-08-31T01:02:19;2.60;;;2.40;;
35364;SDS011;21464;48.112;11.530;2023-08-31T01:07:31;2.58;;;2.40;;
35364;SDS011;21464;48.112;11.530;2023-08-31T01:13:03;2.40;;;2.30;;
35364;SDS011;21464;48.112;11.530;2023-08-31T01:15:31;2.78;;;2.55;;
35364;SDS011;21464;48.112;11.530;2023-08-31T01:17:57;2.67;;;2.45;;
35364;SDS011;21464;48.112;11.530;2023-08-31T01:20:28;2.30;;;2.10;;
35364;SDS011;21464;48.112;11.530;2023-08-31T01:23:00;2.45;;;2.25;;
35364;SDS011;21464;48.112;11.530;2023-08-31T01:25:29;3.35;;;2.60;;
35364;SDS011;21464;48.112;11.530;2023-08-31T01:27:58;2.30;;;2.20;;
35364;SDS011;21464;48.112;11.530;2023-08-31T01:30:25;2.47;;;2.30;;
35364;SDS011;21464;48.112;11.530;2023-08-31T01:32:51;2.15;;;2.05;;
35364;SDS011;21464;48.112;11.530;2023-08-31T01:35:18;2.20;;;2.10;;
35364;SDS011;21464;48.112;11.530;2023-08-31T01:37:56;2.55;;;2.35;;
35364;SDS011;21464;48.112;11.530;2023-08-31T01:43:03;2.72;;;2.47;;
35364;SDS011;21464;48.112;11.530;2023-08-31T01:45:33;2.38;;;2.25;;
35364;SDS011;21464;48.112;11.530;2023-08-31T01:47:59;2.50;;;2.30;;
35364;SDS011;21464;48.112;11.530;2023-08-31T01:50:26;2.35;;;2.25;;
35364;SDS011;21464;48.112;11.530;2023-08-31T01:52:52;2.33;;;2.05;;
35364;SDS011;21464;48.112;11.530;2023-08-31T01:55:26;2.13;;;2.03;;
35364;SDS011;21464;48.112;11.530;2023-08-31T01:57:52;3.15;;;2.42;;
35364;SDS011;21464;48.112;11.530;2023-08-31T02:00:22;2.28;;;2.15;;
35364;SDS011;21464;48.112;11.530;2023-08-31T02:02:48;2.50;;;2.40;;
35364;SDS011;21464;48.112;11.530;2023-08-31T02:05:14;2.42;;;2.22;;
35364;SDS011;21464;48.112;11.530;2023-08-31T02:07:41;2.15;;;2.05;;
35364;SDS011;21464;48.112;11.530;2023-08-31T02:10:07;2.28;;;2.17;;
35364;SDS011;21464;48.112;11.530;2023-08-31T02:12:34;2.42;;;2.28;;
35364;SDS011;21464;48.112;11.530;2023-08-31T02:15:05;3.03;;;2.30;;
35364;SDS011;21464;48.112;11.530;2023-08-31T02:17:33;2.47;;;2.28;;
35364;SDS011;21464;48.112;11.530;2023-08-31T02:20:02;5.20;;;2.72;;
35364;SDS011;21464;48.112;11.530;2023-08-31T02:22:33;2.50;;;2.38;;
35364;SDS011;21464;48.112;11.530;2023-08-31T02:25:01;2.85;;;2.65;;
35364;SDS011;21464;48.112;11.530;2023-08-31T02:27:27;2.70;;;2.53;;
35364;SDS011;21464;48.112;11.530;2023-08-31T02:29:53;3.05;;;2.60;;
35364;SDS011;21464;48.112;11.530;2023-08-31T02:32:19;3.30;;;3.10;;
35364;SDS011;21464;48.112;11.530;2023-08-31T02:34:46;27.50;;;5.88;;
35364;SDS011;21464;48.112;11.530;2023-08-31T02:37:12;6.03;;;4.95;;
35364;SDS011;21464;48.112;11.530;2023-08-31T02:39:38;7.03;;;6.40;;
35364;SDS011;21464;48.112;11.530;2023-08-31T02:42:05;6.78;;;6.07;;
35364;SDS011;21464;48.112;11.530;2023-08-31T02:44:32;7.93;;;7.13;;
35364;SDS011;21464;48.112;11.530;2023-08-31T02:46:58;7.80;;;7.10;;
35364;SDS011;21464;48.112;11.530;2023-08-31T02:49:26;9.00;;;8.07;;
35364;SDS011;21464;48.112;11.530;2023-08-31T02:51:52;8.98;;;8.07;;
35364;SDS011;21464;48.112;11.530;2023-08-31T02:54:18;8.52;;;7.75;;
35364;SDS011;21464;48.112;11.530;2023-08-31T02:56:45;8.80;;;8.10;;
35364;SDS011;21464;48.112;11.530;2023-08-31T02:59:11;9.60;;;8.70;;
35364;SDS011;21464;48.112;11.530;2023-08-31T03:01:39;8.70;;;7.90;;
35364;SDS011;21464;48.112;11.530;2023-08-31T03:04:05;8.95;;;8.05;;
35364;SDS011;21464;48.112;11.530;2023-08-31T03:06:32;8.38;;;7.63;;
35364;SDS011;21464;48.112;11.530;2023-08-31T03:08:58;8.98;;;8.07;;
35364;SDS011;21464;48.112;11.530;2023-08-31T03:11:24;7.93;;;7.15;;
35364;SDS011;21464;48.112;11.530;2023-08-31T03:13:51;8.40;;;7.55;;
35364;SDS011;21464;48.112;11.530;2023-08-31T03:16:17;7.30;;;6.60;;
35364;SDS011;21464;48.112;11.530;2023-08-31T03:18:43;6.30;;;5.70;;
35364;SDS011;21464;48.112;11.530;2023-08-31T03:21:09;6.72;;;6.13;;
35364;SDS011;21464;48.112;11.530;2023-08-31T03:23:35;5.63;;;5.03;;
35364;SDS011;21464;48.112;11.530;2023-08-31T03:26:08;4.40;;;4.10;;
35364;SDS011;21464;48.112;11.530;2023-08-31T03:28:34;5.38;;;4.88;;
35364;SDS011;21464;48.112;11.530;2023-08-31T03:31:01;5.03;;;4.55;;
35364;SDS011;21464;48.112;11.530;2023-08-31T03:33:28;4.43;;;4.13;;
35364;SDS011;21464;48.112;11.530;2023-08-31T03:36:01;4.78;;;4.28;;
35364;SDS011;21464;48.112;11.530;2023-08-31T03:38:30;4.47;;;4.07;;
35364;SDS011;21464;48.112;11.530;2023-08-31T03:40:59;3.95;;;3.65;;
35364;SDS011;21464;48.112;11.530;2023-08-31T03:43:25;4.50;;;3.38;;
35364;SDS011;21464;48.112;11.530;2023-08-31T03:45:55;5.07;;;4.00;;
35364;SDS011;21464;48.112;11.530;2023-08-31T03:48:22;4.22;;;3.83;;
35364;SDS011;21464;48.112;11.530;2023-08-31T03:50:52;3.70;;;3.45;;
35364;SDS011;21464;48.112;11.530;2023-08-31T03:53:19;4.13;;;3.83;;
35364;SDS011;21464;48.112;11.530;2023-08-31T03:55:45;3.88;;;3.47;;
35364;SDS011;21464;48.112;11.530;2023-08-31T03:58:14;4.22;;;3.92;;
35364;SDS011;21464;48.112;11.530;2023-08-31T04:00:43;4.20;;;3.80;;
35364;SDS011;21464;48.112;11.530;2023-08-31T04:03:10;3.97;;;3.55;;
35364;SDS011;21464;48.112;11.530;2023-08-31T04:05:36;4.07;;;3.72;;
35364;SDS011;21464;48.112;11.530;2023-08-31T04:08:03;4.03;;;3.72;;
35364;SDS011;21464;48.112;11.530;2023-08-31T04:10:30;4.03;;;3.47;;
35364;SDS011;21464;48.112;11.530;2023-08-31T04:12:57;3.67;;;3.30;;
35364;SDS011;21464;48.112;11.530;2023-08-31T04:15:24;3.72;;;3.42;;
35364;SDS011;21464;48.112;11.530;2023-08-31T04:17:50;3.97;;;3.67;;
35364;SDS011;21464;48.112;11.530;2023-08-31T04:20:17;4.25;;;3.58;;
35364;SDS011;21464;48.112;11.530;2023-08-31T04:22:43;3.83;;;3.53;;
35364;SDS011;21464;48.112;11.530;2023-08-31T04:25:09;4.13;;;3.75;;
35364;SDS011;21464;48.112;11.530;2023-08-31T04:27:35;4.00;;;3.70;;
35364;SDS011;21464;48.112;11.530;2023-08-31T04:30:05;4.00;;;3.70;;
35364;SDS011;21464;48.112;11.530;2023-08-31T04:32:32;3.78;;;3.47;;
35364;SDS011;21464;48.112;11.530;2023-08-31T04:34:58;4.70;;;4.30;;
35364;SDS011;21464;48.112;11.530;2023-08-31T04:37:25;4.18;;;3.78;;
35364;SDS011;21464;48.112;11.530;2023-08-31T04:39:51;4.55;;;3.95;;
35364;SDS011;21464;48.112;11.530;2023-08-31T04:42:17;4.47;;;4.05;;
35364;SDS011;21464;48.112;11.530;2023-08-31T04:44:43;4.93;;;4.13;;
35364;SDS011;21464;48.112;11.530;2023-08-31T04:47:10;4.43;;;4.03;;
35364;SDS011;21464;48.112;11.530;2023-08-31T04:49:36;4.45;;;4.03;;
35364;SDS011;21464;48.112;11.530;2023-08-31T04:52:03;4.68;;;4.28;;
35364;SDS011;21464;48.112;11.530;2023-08-31T04:54:29;4.47;;;4.18;;
35364;SDS011;21464;48.112;11.530;2023-08-31T04:56:55;4.53;;;4.22;;
35364;SDS011;21464;48.112;11.530;2023-08-31T04:59:21;5.50;;;4.20;;
35364;SDS011;21464;48.112;11.530;2023-08-31T05:01:48;6.07;;;5.57;;
35364;SDS011;21464;48.112;11.530;2023-08-31T05:04:14;5.22;;;4.80;;
35364;SDS011;21464;48.112;11.530;2023-08-31T05:06:40;6.20;;;5.60;;
35364;SDS011;21464;48.112;11.530;2023-08-31T05:09:06;4.90;;;4.40;;
35364;SDS011;21464;48.112;11.530;2023-08-31T05:11:33;4.30;;;4.00;;
35364;SDS011;21464;48.112;11.530;2023-08-31T05:13:59;4.88;;;4.47;;
35364;SDS011;21464;48.112;11.530;2023-08-31T05:16:25;4.95;;;4.55;;
35364;SDS011;21464;48.112;11.530;2023-08-31T05:18:52;4.82;;;4.38;;
35364;SDS011;21464;48.112;11.530;2023-08-31T05:21:18;4.80;;;4.28;;
35364;SDS011;21464;48.112;11.530;2023-08-31T05:23:44;5.05;;;4.55;;
35364;SDS011;21464;48.112;11.530;2023-08-31T05:26:10;4.85;;;4.40;;
35364;SDS011;21464;48.112;11.530;2023-08-31T05:28:36;4.10;;;3.80;;
35364;SDS011;21464;48.112;11.530;2023-08-31T05:31:02;4.97;;;4.55;;
35364;SDS011;21464;48.112;11.530;2023-08-31T05:33:29;5.90;;;5.15;;
35364;SDS011;21464;48.112;11.530;2023-08-31T05:36:02;5.35;;;4.85;;
35364;SDS011;21464;48.112;11.530;2023-08-31T05:38:32;4.82;;;4.43;;
35364;SDS011;21464;48.112;11.530;2023-08-31T05:41:08;5.28;;;4.88;;
35364;SDS011;21464;48.112;11.530;2023-08-31T05:43:35;5.38;;;4.97;;
35364;SDS011;21464;48.112;11.530;2023-08-31T05:46:02;5.32;;;4.93;;
35364;SDS011;21464;48.112;11.530;2023-08-31T05:48:28;6.32;;;4.95;;
35364;SDS011;21464;48.112;11.530;2023-08-31T05:50:56;6.75;;;6.05;;
35364;SDS011;21464;48.112;11.530;2023-08-31T05:53:22;11.45;;;8.13;;
35364;SDS011;21464;48.112;11.530;2023-08-31T05:55:48;6.10;;;5.53;;
35364;SDS011;21464;48.112;11.530;2023-08-31T05:58:15;5.70;;;5.20;;
35364;SDS011;21464;48.112;11.530;2023-08-31T06:00:41;5.53;;;5.10;;
35364;SDS011;21464;48.112;11.530;2023-08-31T06:03:07;5.47;;;4.97;;
35364;SDS011;21464;48.112;11.530;2023-08-31T06:05:33;6.85;;;6.15;;
35364;SDS011;21464;48.112;11.530;2023-08-31T06:08:01;5.75;;;5.15;;
35364;SDS011;21464;48.112;11.530;2023-08-31T06:10:27;5.93;;;5.32;;
35364;SDS011;21464;48.112;11.530;2023-08-31T06:12:53;5.45;;;4.85;;
35364;SDS011;21464;48.112;11.530;2023-08-31T06:15:19;6.25;;;5.75;;
35364;SDS011;21464;48.112;11.530;2023-08-31T06:17:45;9.50;;;8.05;;
35364;SDS011;21464;48.112;11.530;2023-08-31T06:20:11;5.85;;;5.35;;
35364;SDS011;21464;48.112;11.530;2023-08-31T06:22:38;6.22;;;5.63;;
35364;SDS011;21464;48.112;11.530;2023-08-31T06:25:04;6.03;;;5.43;;
35364;SDS011;21464;48.112;11.530;2023-08-31T06:27:31;5.65;;;5.15;;
35364;SDS011;21464;48.112;11.530;2023-08-31T06:29:57;5.25;;;4.78;;
35364;SDS011;21464;48.112;11.530;2023-08-31T06:32:23;4.57;;;4.20;;
35364;SDS011;21464;48.112;11.530;2023-08-31T06:34:49;4.40;;;4.00;;
35364;SDS011;21464;48.112;11.530;2023-08-31T06:37:16;3.97;;;3.67;;
35364;SDS011;21464;48.112;11.530;2023-08-31T06:39:42;4.57;;;4.28;;
35364;SDS011;21464;48.112;11.530;2023-08-31T06:42:08;4.72;;;3.95;;
35364;SDS011;21464;48.112;11.530;2023-08-31T06:44:37;4.90;;;4.45;;
35364;SDS011;21464;48.112;11.530;2023-08-31T06:47:03;5.45;;;4.20;;
35364;SDS011;21464;48.112;11.530;2023-08-31T06:49:30;4.82;;;3.90;;
35364;SDS011;21464;48.112;11.530;2023-08-31T06:51:59;4.05;;;3.65;;
35364;SDS011;21464;48.112;11.530;2023-08-31T06:54:26;3.00;;;2.80;;
35364;SDS011;21464;48.112;11.530;2023-08-31T06:56:52;3.67;;;3.22;;
35364;SDS011;21464;48.112;11.530;2023-08-31T06:59:18;3.42;;;3.20;;
35364;SDS011;21464;48.112;11.530;2023-08-31T07:01:44;3.25;;;3.05;;
35364;SDS011;21464;48.112;11.530;2023-08-31T07:04:11;3.53;;;3.22;;
35364;SDS011;21464;48.112;11.530;2023-08-31T07:06:38;4.03;;;3.20;;
35364;SDS011;21464;48.112;11.530;2023-08-31T07:09:04;3.92;;;3.53;;
35364;SDS011;21464;48.112;11.530;2023-08-31T07:11:32;3.33;;;3.13;;
35364;SDS011;21464;48.112;11.530;2023-08-31T07:13:58;4.35;;;3.20;;
35364;SDS011;21464;48.112;11.530;2023-08-31T07:16:25;3.28;;;2.97;;
35364;SDS011;21464;48.112;11.530;2023-08-31T07:18:51;3.15;;;2.95;;
35364;SDS011;21464;48.112;11.530;2023-08-31T07:21:18;3.42;;;3.17;;
35364;SDS011;21464;48.112;11.530;2023-08-31T07:23:44;3.08;;;2.88;;
35364;SDS011;21464;48.112;11.530;2023-08-31T07:26:10;3.03;;;2.83;;
35364;SDS011;21464;48.112;11.530;2023-08-31T07:28:36;2.95;;;2.75;;
35364;SDS011;21464;48.112;11.530;2023-08-31T07:31:06;3.05;;;2.85;;
35364;SDS011;21464;48.112;11.530;2023-08-31T07:33:33;3.50;;;3.20;;
35364;SDS011;21464;48.112;11.530;2023-08-31T07:36:01;3.22;;;3.03;;
35364;SDS011;21464;48.112;11.530;2023-08-31T07:38:29;3.10;;;2.80;;
35364;SDS011;21464;48.112;11.530;2023-08-31T07:40:56;4.07;;;3.67;;
35364;SDS011;21464;48.112;11.530;2023-08-31T07:43:22;3.72;;;3.42;;
35364;SDS011;21464;48.112;11.530;2023-08-31T07:45:49;3.53;;;3.25;;
35364;SDS011;21464;48.112;11.530;2023-08-31T07:48:15;3.03;;;2.80;;
35364;SDS011;21464;48.112;11.530;2023-08-31T07:50:41;3.78;;;3.47;;
35364;SDS011;21464;48.112;11.530;2023-08-31T07:53:08;8.73;;;5.85;;
35364;SDS011;21464;48.112;11.530;2023-08-31T07:55:34;4.40;;;4.00;;
35364;SDS011;21464;48.112;11.530;2023-08-31T07:58:01;3.30;;;3.00;;
35364;SDS011;21464;48.112;11.530;2023-08-31T08:00:27;4.88;;;3.45;;
35364;SDS011;21464;48.112;11.530;2023-08-31T08:02:53;3.40;;;3.10;;
35364;SDS011;21464;48.112;11.530;2023-08-31T08:05:19;3.42;;;3.20;;
35364;SDS011;21464;48.112;11.530;2023-08-31T08:07:46;4.28;;;3.22;;
35364;SDS011;21464;48.112;11.530;2023-08-31T08:10:12;3.70;;;2.97;;
35364;SDS011;21464;48.112;11.530;2023-08-31T08:12:40;3.65;;;2.90;;
35364;SDS011;21464;48.112;11.530;2023-08-31T08:15:09;2.40;;;2.20;;
35364;SDS011;21464;48.112;11.530;2023-08-31T08:17:35;3.08;;;2.85;;
35364;SDS011;21464;48.112;11.530;2023-08-31T08:20:02;2.55;;;2.35;;
35364;SDS011;21464;48.112;11.530;2023-08-31T08:22:30;2.72;;;2.53;;
35364;SDS011;21464;48.112;11.530;2023-08-31T08:24:56;2.95;;;2.30;;
35364;SDS011;21464;48.112;11.530;2023-08-31T08:27:22;2.78;;;2.42;;
35364;SDS011;21464;48.112;11.530;2023-08-31T08:29:49;2.55;;;2.35;;
35364;SDS011;21464;48.112;11.530;2023-08-31T08:32:16;3.38;;;2.75;;
35364;SDS011;21464;48.112;11.530;2023-08-31T08:34:42;3.78;;;2.65;;
35364;SDS011;21464;48.112;11.530;2023-08-31T08:37:08;2.65;;;2.45;;
35364;SDS011;21464;48.112;11.530;2023-08-31T08:39:34;4.72;;;2.50;;
35364;SDS011;21464;48.112;11.530;2023-08-31T08:42:02;4.07;;;2.38;;
35364;SDS011;21464;48.112;11.530;2023-08-31T08:44:31;3.53;;;2.38;;
35364;SDS011;21464;48.112;11.530;2023-08-31T08:46:59;4.05;;;2.80;;
35364;SDS011;21464;48.112;11.530;2023-08-31T08:49:26;2.30;;;2.10;;
35364;SDS011;21464;48.112;11.530;2023-08-31T08:51:52;3.50;;;2.13;;
35364;SDS011;21464;48.112;11.530;2023-08-31T08:54:20;2.60;;;2.17;;
35364;SDS011;21464;48.112;11.530;2023-08-31T08:56:48;3.63;;;2.13;;
35364;SDS011;21464;48.112;11.530;2023-08-31T08:59:14;2.22;;;2.08;;
35364;SDS011;21464;48.112;11.530;2023-08-31T09:01:40;2.70;;;2.20;;
35364;SDS011;21464;48.112;11.530;2023-08-31T09:04:08;4.97;;;2.10;;
35364;SDS011;21464;48.112;11.530;2023-08-31T09:06:35;2.85;;;2.13;;
35364;SDS011;21464;48.112;11.530;2023-08-31T09:09:01;2.55;;;1.88;;
35364;SDS011;21464;48.112;11.530;2023-08-31T09:11:28;2.10;;;2.00;;
35364;SDS011;21464;48.112;11.530;2023-08-31T09:13:56;2.35;;;1.77;;
35364;SDS011;21464;48.112;11.530;2023-08-31T09:16:26;2.28;;;1.80;;
35364;SDS011;21464;48.112;11.530;2023-08-31T09:18:57;3.50;;;1.80;;
35364;SDS011;21464;48.112;11.530;2023-08-31T09:21:37;2.03;;;1.80;;
35364;SDS011;21464;48.112;11.530;2023-08-31T09:24:06;2.33;;;2.03;;
35364;SDS011;21464;48.112;11.530;2023-08-31T09:26:47;2.92;;;2.10;;
35364;SDS011;21464;48.112;11.530;2023-08-31T09:29:18;2.03;;;1.80;;
35364;SDS011;21464;48.112;11.530;2023-08-31T09:31:45;2.50;;;1.70;;
35364;SDS011;21464;48.112;11.530;2023-08-31T09:34:12;2.92;;;1.83;;
35364;SDS011;21464;48.112;11.530;2023-08-31T09:36:40;1.83;;;1.58;;
35364;SDS011;21464;48.112;11.530;2023-08-31T09:39:06;2.25;;;2.00;;
35364;SDS011;21464;48.112;11.530;2023-08-31T09:41:32;2.20;;;1.88;;
35364;SDS011;21464;48.112;11.530;2023-08-31T09:44:20;3.70;;;2.20;;
35364;SDS011;21464;48.112;11.530;2023-08-31T09:46:46;2.15;;;1.70;;
35364;SDS011;21464;48.112;11.530;2023-08-31T09:49:13;2.40;;;2.05;;
35364;SDS011;21464;48.112;11.530;2023-08-31T09:51:43;4.65;;;2.08;;
35364;SDS011;21464;48.112;11.530;2023-08-31T09:54:12;2.03;;;1.90;;
35364;SDS011;21464;48.112;11.530;2023-08-31T09:56:40;2.83;;;1.80;;
35364;SDS011;21464;48.112;11.530;2023-08-31T09:59:08;2.15;;;1.88;;
35364;SDS011;21464;48.112;11.530;2023-08-31T10:01:34;2.65;;;2.10;;
35364;SDS011;21464;48.112;11.530;2023-08-31T10:04:01;2.78;;;2.33;;
35364;SDS011;21464;48.112;11.530;2023-08-31T10:06:29;2.38;;;1.85;;
35364;SDS011;21464;48.112;11.530;2023-08-31T10:08:55;2.40;;;1.75;;
35364;SDS011;21464;48.112;11.530;2023-08-31T10:11:22;1.90;;;1.70;;
35364;SDS011;21464;48.112;11.530;2023-08-31T10:13:51;2.28;;;1.55;;
35364;SDS011;21464;48.112;11.530;2023-08-31T10:16:17;2.25;;;1.77;;
35364;SDS011;21464;48.112;11.530;2023-08-31T10:18:44;2.28;;;2.10;;
35364;SDS011;21464;48.112;11.530;2023-08-31T10:21:11;2.40;;;2.00;;
35364;SDS011;21464;48.112;11.530;2023-08-31T10:23:44;2.15;;;1.73;;
35364;SDS011;21464;48.112;11.530;2023-08-31T10:26:10;2.17;;;1.80;;
35364;SDS011;21464;48.112;11.530;2023-08-31T10:28:41;2.30;;;1.90;;
35364;SDS011;21464;48.112;11.530;2023-08-31T10:31:09;2.75;;;2.00;;
35364;SDS011;21464;48.112;11.530;2023-08-31T10:33:43;2.33;;;1.77;;
35364;SDS011;21464;48.112;11.530;2023-08-31T10:36:17;2.75;;;1.88;;
35364;SDS011;21464;48.112;11.530;2023-08-31T10:38:59;1.73;;;1.63;;
35364;SDS011;21464;48.112;11.530;2023-08-31T10:41:35;3.03;;;1.92;;
35364;SDS011;21464;48.112;11.530;2023-08-31T10:44:02;1.90;;;1.67;;
35364;SDS011;21464;48.112;11.530;2023-08-31T10:46:32;3.20;;;1.95;;
35364;SDS011;21464;48.112;11.530;2023-08-31T10:51:38;2.78;;;1.88;;
35364;SDS011;21464;48.112;11.530;2023-08-31T10:59:24;2.30;;;1.90;;
35364;SDS011;21464;48.112;11.530;2023-08-31T11:01:55;3.55;;;2.25;;
35364;SDS011;21464;48.112;11.530;2023-08-31T11:04:23;3.83;;;2.20;;
35364;SDS011;21464;48.112;11.530;2023-08-31T11:09:39;2.13;;;1.88;;
35364;SDS011;21464;48.112;11.530;2023-08-31T11:12:06;2.42;;;2.00;;
35364;SDS011;21464;48.112;11.530;2023-08-31T11:14:33;2.72;;;1.90;;
35364;SDS011;21464;48.112;11.530;2023-08-31T11:16:59;3.40;;;2.28;;
35364;SDS011;21464;48.112;11.530;2023-08-31T11:19:27;2.55;;;2.00;;
35364;SDS011;21464;48.112;11.530;2023-08-31T11:21:54;2.70;;;2.13;;
35364;SDS011;21464;48.112;11.530;2023-08-31T11:24:20;3.15;;;2.30;;
35364;SDS011;21464;48.112;11.530;2023-08-31T11:26:50;2.92;;;2.20;;
35364;SDS011;21464;48.112;11.530;2023-08-31T11:29:17;3.25;;;2.42;;
35364;SDS011;21464;48.112;11.530;2023-08-31T11:31:43;5.07;;;2.63;;
35364;SDS011;21464;48.112;11.530;2023-08-31T11:34:13;2.58;;;2.38;;
35364;SDS011;21464;48.112;11.530;2023-08-31T11:36:41;2.92;;;2.53;;
35364;SDS011;21464;48.112;11.530;2023-08-31T11:39:11;2.58;;;2.08;;
35364;SDS011;21464;48.112;11.530;2023-08-31T11:41:38;2.90;;;2.45;;
35364;SDS011;21464;48.112;11.530;2023-08-31T11:44:14;3.95;;;2.33;;
35364;SDS011;21464;48.112;11.530;2023-08-31T11:46:42;2.50;;;2.30;;
35364;SDS011;21464;48.112;11.530;2023-08-31T11:49:10;2.70;;;2.42;;
35364;SDS011;21464;48.112;11.530;2023-08-31T11:51:37;2.80;;;2.30;;
35364;SDS011;21464;48.112;11.530;2023-08-31T11:54:04;3.05;;;2.15;;
35364;SDS011;21464;48.112;11.530;2023-08-31T11:59:09;3.13;;;2.00;;
35364;SDS011;21464;48.112;11.530;2023-08-31T12:01:38;3.97;;;2.40;;
35364;SDS011;21464;48.112;11.530;2023-08-31T12:04:21;2.90;;;2.40;;
35364;SDS011;21464;48.112;11.530;2023-08-31T12:06:51;4.60;;;2.40;;
35364;SDS011;21464;48.112;11.530;2023-08-31T12:09:19;2.60;;;2.30;;
35364;SDS011;21464;48.112;11.530;2023-08-31T12:11:52;5.20;;;2.55;;
35364;SDS011;21464;48.112;11.530;2023-08-31T12:14:19;3.25;;;2.30;;
35364;SDS011;21464;48.112;11.530;2023-08-31T12:16:46;2.92;;;2.30;;
35364;SDS011;21464;48.112;11.530;2023-08-31T12:19:12;4.75;;;2.30;;
35364;SDS011;21464;48.112;11.530;2023-08-31T12:21:39;3.53;;;2.30;;
35364;SDS011;21464;48.112;11.530;2023-08-31T12:24:05;4.68;;;2.38;;
35364;SDS011;21464;48.112;11.530;2023-08-31T12:26:32;3.38;;;2.22;;
35364;SDS011;21464;48.112;11.530;2023-08-31T12:28:58;2.33;;;1.70;;
35364;SDS011;21464;48.112;11.530;2023-08-31T12:31:24;3.63;;;2.30;;
35364;SDS011;21464;48.112;11.530;2023-08-31T12:33:51;3.00;;;2.22;;
35364;SDS011;21464;48.112;11.530;2023-08-31T12:36:17;3.92;;;1.92;;
35364;SDS011;21464;48.112;11.530;2023-08-31T12:38:43;3.03;;;2.13;;
35364;SDS011;21464;48.112;11.530;2023-08-31T12:41:09;2.75;;;1.90;;
35364;SDS011;21464;48.112;11.530;2023-08-31T12:43:35;3.25;;;2.33;;
35364;SDS011;21464;48.112;11.530;2023-08-31T12:46:02;2.83;;;2.20;;
35364;SDS011;21464;48.112;11.530;2023-08-31T12:48:34;3.45;;;2.30;;
35364;SDS011;21464;48.112;11.530;2023-08-31T12:51:00;4.45;;;1.83;;
35364;SDS011;21464;48.112;11.530;2023-08-31T12:53:26;2.35;;;1.92;;
35364;SDS011;21464;48.112;11.530;2023-08-31T12:55:53;5.43;;;2.00;;
35364;SDS011;21464;48.112;11.530;2023-08-31T12:58:20;2.38;;;2.05;;
35364;SDS011;21464;48.112;11.530;2023-08-31T13:00:47;2.33;;;1.70;;
35364;SDS011;21464;48.112;11.530;2023-08-31T13:03:15;2.30;;;1.80;;
35364;SDS011;21464;48.112;11.530;2023-08-31T13:05:41;2.20;;;2.00;;
35364;SDS011;21464;48.112;11.530;2023-08-31T13:08:07;2.92;;;2.08;;
35364;SDS011;21464;48.112;11.530;2023-08-31T13:10:35;2.22;;;1.90;;
35364;SDS011;21464;48.112;11.530;2023-08-31T13:13:01;2.50;;;2.30;;
35364;SDS011;21464;48.112;11.530;2023-08-31T13:15:27;2.63;;;1.88;;
35364;SDS011;21464;48.112;11.530;2023-08-31T13:17:53;2.63;;;2.10;;
35364;SDS011;21464;48.112;11.530;2023-08-31T13:20:19;4.28;;;2.50;;
35364;SDS011;21464;48.112;11.530;2023-08-31T13:22:46;3.35;;;2.28;;
35364;SDS011;21464;48.112;11.530;2023-08-31T13:25:12;4.05;;;2.45;;
35364;SDS011;21464;48.112;11.530;2023-08-31T13:27:38;2.92;;;2.20;;
35364;SDS011;21464;48.112;11.530;2023-08-31T13:30:05;2.53;;;2.03;;
35364;SDS011;21464;48.112;11.530;2023-08-31T13:32:34;2.72;;;2.10;;
35364;SDS011;21464;48.112;11.530;2023-08-31T13:35:01;3.72;;;2.28;;
35364;SDS011;21464;48.112;11.530;2023-08-31T13:37:27;2.15;;;1.83;;
35364;SDS011;21464;48.112;11.530;2023-08-31T13:39:53;3.58;;;1.92;;
35364;SDS011;21464;48.112;11.530;2023-08-31T13:42:22;2.42;;;1.98;;
35364;SDS011;21464;48.112;11.530;2023-08-31T13:44:48;5.63;;;2.30;;
35364;SDS011;21464;48.112;11.530;2023-08-31T13:47:14;2.28;;;1.92;;
35364;SDS011;21464;48.112;11.530;2023-08-31T13:49:41;2.33;;;2.13;;
35364;SDS011;21464;48.112;11.530;2023-08-31T13:52:07;3.33;;;1.98;;
35364;SDS011;21464;48.112;11.530;2023-08-31T13:54:35;4.65;;;2.90;;
35364;SDS011;21464;48.112;11.530;2023-08-31T13:57:01;2.10;;;1.85;;
35364;SDS011;21464;48.112;11.530;2023-08-31T13:59:27;3.78;;;2.13;;
35364;SDS011;21464;48.112;11.530;2023-08-31T14:01:53;2.22;;;1.58;;
35364;SDS011;21464;48.112;11.530;2023-08-31T14:04:20;2.40;;;1.80;;
35364;SDS011;21464;48.112;11.530;2023-08-31T14:06:47;2.45;;;1.75;;
35364;SDS011;21464;48.112;11.530;2023-08-31T14:09:14;2.50;;;2.00;;
35364;SDS011;21464;48.112;11.530;2023-08-31T14:11:40;2.90;;;1.95;;
35364;SDS011;21464;48.112;11.530;2023-08-31T14:14:07;3.13;;;1.90;;
35364;SDS011;21464;48.112;11.530;2023-08-31T14:16:37;2.00;;;1.80;;
35364;SDS011;21464;48.112;11.530;2023-08-31T14:19:03;2.80;;;1.92;;
35364;SDS011;21464;48.112;11.530;2023-08-31T14:21:30;4.15;;;2.10;;
35364;SDS011;21464;48.112;11.530;2023-08-31T14:23:56;3.53;;;2.00;;
35364;SDS011;21464;48.112;11.530;2023-08-31T14:26:23;3.05;;;2.10;;
35364;SDS011;21464;48.112;11.530;2023-08-31T14:28:52;2.65;;;2.10;;
35364;SDS011;21464;48.112;11.530;2023-08-31T14:34:24;2.38;;;2.03;;
35364;SDS011;21464;48.112;11.530;2023-08-31T14:36:51;3.25;;;1.80;;
35364;SDS011;21464;48.112;11.530;2023-08-31T14:39:18;3.47;;;1.98;;
35364;SDS011;21464;48.112;11.530;2023-08-31T14:41:44;3.55;;;2.03;;
35364;SDS011;21464;48.112;11.530;2023-08-31T14:44:11;4.68;;;2.15;;
35364;SDS011;21464;48.112;11.530;2023-08-31T14:46:37;4.00;;;1.90;;
35364;SDS011;21464;48.112;11.530;2023-08-31T14:49:05;3.47;;;2.10;;
35364;SDS011;21464;48.112;11.530;2023-08-31T14:51:32;2.85;;;2.15;;
35364;SDS011;21464;48.112;11.530;2023-08-31T14:53:59;3.47;;;1.98;;
35364;SDS011;21464;48.112;11.530;2023-08-31T14:56:25;3.38;;;1.98;;
35364;SDS011;21464;48.112;11.530;2023-08-31T14:58:51;3.50;;;2.10;;